Cusco, Peru
Current Conditions -  °F | °C
As of 6:40 PM on Friday 19 Dec 2014 (Local Time) from SPZO Reporting Station
Light Rain Light Rain  
Wind Chill: 52°   Ceiling: 7000
Heat Index: 52°   Visibility: 6mi
Dew Point: 39°   Wind: 16mph
Humidity: 62%   Direction: 190°S
Pressure: 30.36"   Gusts: 28mph
Location:  13.52°S, 71.99°W
Report Text: SPZO 192340Z 19014G24KT 090V240 9999 -RA FEW040TCU SCT050 BKN070 11/04 Q1028
Loading
Personal Weather Stations






























Interactive Weather Map New forecast layout! Learn more

10-Day Weather Forecast

Advertisements
Track Severe Weather on mobile